M I D A S
Marine Information and Data Acquisition System
Tripno 186 of the Zeeleeuw from 2001-12-17 07:15:00 to 2001-12-17 13:50:14
Back to CruiseResearch ActivitiesStationsMapUnderway DataData graphs

EquipmentUnitsComments
TimeDGPSUTC
LatitudeDGPSDM.mWGS84
LongitudeDGPSDM.mWGS84
SpeedMeteo Stationm/sRelative wind speed
DirectionMeteo StationdegRelative wind direction
TemperatureMeteo Stationdeg CelciusAir temperature
PressureMeteo StationPaAtmospheric pressure
HumidityMeteo Station%Relative humidity
Missing or incorrect values are displayed as -999
Metereological data collected by the RV Zeeleeuw from 2001-12-17 07:15:00 to 2001-12-17 13:50:14
Time Latitude Longitude Speed Direction Temperature Pressure Humidity
2001-12-17 07:49 51°13.687 2°55.905 3 44 0.2 103710 87
2001-12-17 07:50 51°13.687 2°55.905 3.3 48 0.2 103700 87
2001-12-17 07:51 51°13.688 2°55.904 3.3 44 0.2 103700 87
2001-12-17 07:52 51°13.688 2°55.904 2.5 36 0.2 103700 87
2001-12-17 07:53 51°13.689 2°55.905 2.8 21 0.2 103700 87
2001-12-17 07:54 51°13.689 2°55.905 3.5 36 0.2 103700 87
2001-12-17 07:55 51°13.689 2°55.905 3.1 47 0.2 103700 87
2001-12-17 07:56 51°13.689 2°55.904 3.1 5 0.2 103700 87
2001-12-17 07:57 51°13.688 2°55.905 2.8 57 0.2 103700 87
2001-12-17 07:58 51°13.688 2°55.905 1.7 52 0.2 103700 87
2001-12-17 07:59 51°13.688 2°55.905 2 35 0.3 103690 88
2001-12-17 08:00 51°13.688 2°55.905 2.4 27 0.3 103700 87
2001-12-17 08:01 51°13.688 2°55.904 2.6 130 0.3 103700 87
2001-12-17 08:02 51°13.688 2°55.904 3.5 26 0.2 103700 87
2001-12-17 08:03 51°13.688 2°55.905 1.8 22 0.2 103700 87
2001-12-17 08:04 51°13.688 2°55.905 3.3 30 0.2 103700 88
2001-12-17 08:05 51°13.688 2°55.904 4.2 30 0.2 103700 87
2001-12-17 08:06 51°13.689 2°55.904 3.9 34 0.2 103690 87
2001-12-17 08:07 51°13.689 2°55.904 2.7 15 0.1 103690 88
2001-12-17 08:08 51°13.689 2°55.904 3.5 56 0.2 103700 88
2001-12-17 08:09 51°13.689 2°55.904 4.2 7 0.2 103700 88
2001-12-17 08:10 51°13.689 2°55.904 3.3 46 0.2 103700 88
2001-12-17 08:11 51°13.689 2°55.904 4.1 30 0.2 103700 88
2001-12-17 08:12 51°13.688 2°55.904 3.1 35 0.2 103700 88
2001-12-17 08:13 51°13.688 2°55.904 3.2 27 0.2 103710 88
2001-12-17 08:14 51°13.688 2°55.904 3.7 3 0.2 103710 88
2001-12-17 08:15 51°13.687 2°55.904 2.8 20 0.2 103710 88
2001-12-17 08:16 51°13.687 2°55.904 1.3 38 0.2 103720 88
2001-12-17 08:17 51°13.691 2°55.886 2.8 343 0.2 103720 88
2001-12-17 08:18 51°13.701 2°55.818 4.4 338 0.2 103710 88
2001-12-17 08:19 51°13.704 2°55.751 4.5 350 0.2 103720 88
2001-12-17 08:20 51°13.708 2°55.725 2.2 320 0.2 103720 88
2001-12-17 08:21 51°13.79 2°55.676 2.5 193 0.2 103710 88
2001-12-17 08:22 51°13.873 2°55.602 3 202 0.2 103720 88
2001-12-17 08:23 51°13.959 2°55.54 2.7 149 0.3 103710 88
2001-12-17 08:24 51°14.045 2°55.48 3.8 193 0.4 103710 89
2001-12-17 08:25 51°14.129 2°55.415 2.8 176 0.6 103710 89
2001-12-17 08:26 51°14.209 2°55.339 4.1 163 0.7 103710 89
2001-12-17 08:27 51°14.297 2°55.196 7.6 183 1 103700 90
2001-12-17 08:28 51°14.403 2°54.977 10.2 179 1.1 103700 89
2001-12-17 08:29 51°14.417 2°54.637 11.4 156 1.1 103690 89
2001-12-17 08:30 51°14.323 2°54.309 14 155 1.2 103680 89
2001-12-17 08:31 51°14.226 2°53.979 11.4 150 1.3 103690 89
2001-12-17 08:32 51°14.122 2°53.65 13.9 146 1.6 103690 90
2001-12-17 08:33 51°14.011 2°53.318 14.3 143 1.8 103700 90
2001-12-17 08:34 51°13.898 2°52.979 14.1 144 2 103690 90
2001-12-17 08:35 51°13.784 2°52.636 14.2 146 2.1 103690 90
2001-12-17 08:36 51°13.67 2°52.294 13.9 146 2.1 103700 89
2001-12-17 08:37 51°13.553 2°51.943 13.5 145 2.1 103700 89
2001-12-17 08:38 51°13.436 2°51.584 14.6 146 2.2 103700 89
2001-12-17 08:39 51°13.32 2°51.231 14.1 146 2.3 103700 89
2001-12-17 08:40 51°13.203 2°50.88 13.6 146 2.3 103690 89
2001-12-17 08:41 51°13.087 2°50.529 15 143 2.5 103700 90
2001-12-17 08:42 51°12.97 2°50.177 13.7 147 2.7 103700 90
2001-12-17 08:43 51°12.854 2°49.823 14.9 144 2.8 103690 90
2001-12-17 08:44 51°12.737 2°49.469 15.7 141 2.8 103690 90
2001-12-17 08:45 51°12.621 2°49.115 15.3 139 2.7 103690 90
2001-12-17 08:46 51°12.509 2°48.764 14.9 142 2.7 103700 89
2001-12-17 08:47 51°12.396 2°48.397 14.3 141 2.8 103690 90
2001-12-17 08:48 51°12.286 2°48.039 14.7 144 2.9 103690 90
2001-12-17 08:49 51°12.172 2°47.673 14.8 142 2.9 103690 90
2001-12-17 08:50 51°12.063 2°47.312 15.9 141 2.9 103690 90
2001-12-17 08:51 51°11.968 2°46.944 15.4 147 2.9 103690 90
2001-12-17 08:52 51°11.872 2°46.574 14.4 145 2.9 103690 90
2001-12-17 08:53 51°11.776 2°46.204 14.2 149 3 103690 90
2001-12-17 08:54 51°11.679 2°45.834 14.9 143 3.1 103690 91
2001-12-17 08:55 51°11.582 2°45.464 14.2 142 3.3 103690 91
2001-12-17 08:56 51°11.485 2°45.093 16.1 140 3.5 103680 91
2001-12-17 08:57 51°11.387 2°44.724 13.7 143 3.5 103680 91
2001-12-17 08:58 51°11.289 2°44.356 15.1 144 3.6 103690 90
2001-12-17 08:59 51°11.191 2°43.989 14.8 142 3.6 103670 90
2001-12-17 09:00 51°11.093 2°43.621 14.4 146 3.7 103690 90
2001-12-17 09:01 51°10.993 2°43.253 13.2 143 3.8 103690 91
2001-12-17 09:02 51°10.893 2°42.884 14.7 149 4 103680 91
2001-12-17 09:03 51°10.799 2°42.512 13.8 136 4.2 103680 91
2001-12-17 09:04 51°10.705 2°42.14 13 139 4.4 103690 91
2001-12-17 09:05 51°10.612 2°41.77 15.2 144 4.4 103680 90
2001-12-17 09:06 51°10.519 2°41.406 14.8 143 4.3 103680 89
2001-12-17 09:07 51°10.422 2°41.031 12.8 139 4.3 103690 89
2001-12-17 09:08 51°10.328 2°40.664 15 141 4.4 103680 88
2001-12-17 09:09 51°10.234 2°40.298 15.4 143 4.3 103680 87
2001-12-17 09:10 51°10.139 2°39.933 15 141 4.2 103690 87
2001-12-17 09:11 51°10.044 2°39.57 15.7 142 4.2 103690 88
2001-12-17 09:12 51°9.949 2°39.208 14.1 145 4.1 103690 87
2001-12-17 09:13 51°9.864 2°38.846 15.5 150 3.9 103690 87
2001-12-17 09:14 51°9.776 2°38.472 13.5 148 3.9 103690 88
2001-12-17 09:15 51°9.69 2°38.105 15.3 154 3.8 103680 88
2001-12-17 09:16 51°9.603 2°37.737 14 142 3.9 103690 89
2001-12-17 09:17 51°9.522 2°37.365 13.9 151 4 103690 89
2001-12-17 09:18 51°9.448 2°36.988 13.8 150 4.1 103690 89
2001-12-17 09:19 51°9.373 2°36.61 14.7 146 4.2 103690 89
2001-12-17 09:20 51°9.301 2°36.263 11.8 158 4.4 103690 88
2001-12-17 09:21 51°9.322 2°36.077 9.7 208 4.4 103700 88
2001-12-17 09:22 51°9.351 2°36.02 8 273 4.4 103710 87
2001-12-17 09:23 51°9.34 2°35.99 6.7 292 4.3 103710 87
2001-12-17 09:24 51°9.342 2°36.002 6.4 354 4.4 103710 88
2001-12-17 09:25 51°9.323 2°36.027 6.8 30 4.4 103690 87
2001-12-17 09:26 51°9.303 2°36.068 5.3 8 4.5 103700 87
2001-12-17 09:27 51°9.297 2°36.109 5.5 11 4.5 103700 87
2001-12-17 09:28 51°9.29 2°36.146 5.3 7 4.4 103700 87
2001-12-17 09:29 51°9.283 2°36.177 5.9 356 4.4 103700 87
2001-12-17 09:30 51°9.28 2°36.198 6.1 349 4.4 103700 87
2001-12-17 09:31 51°9.274 2°36.213 7.6 10 4.3 103690 87
2001-12-17 09:32 51°9.264 2°36.224 6.5 9 4.4 103690 88
2001-12-17 09:33 51°9.251 2°36.231 6.8 22 4.4 103690 88
2001-12-17 09:34 51°9.236 2°36.232 6 30 4.5 103700 88
2001-12-17 09:35 51°9.22 2°36.226 5.8 44 4.6 103690 88
2001-12-17 09:36 51°9.203 2°36.226 5.1 19 4.6 103700 88
2001-12-17 09:37 51°9.194 2°36.246 4.6 348 4.7 103700 88
2001-12-17 09:38 51°9.208 2°36.26 4.8 287 4.7 103710 88
2001-12-17 09:39 51°9.238 2°36.248 4.1 259 4.8 103700 88
2001-12-17 09:40 51°9.267 2°36.221 1.4 230 4.9 103700 88
2001-12-17 09:41 51°9.291 2°36.188 5.6 265 5 103690 88
2001-12-17 09:42 51°9.303 2°36.157 4 262 5.1 103700 87
2001-12-17 09:43 51°9.318 2°36.137 5.8 276 5.2 103690 87
2001-12-17 09:44 51°9.354 2°36.172 5.3 331 5.2 103700 87
2001-12-17 09:45 51°9.363 2°36.213 4.8 351 5.2 103690 87
2001-12-17 09:46 51°9.356 2°36.234 6.2 359 5.2 103680 87
2001-12-17 09:47 51°9.349 2°36.24 5.6 353 5.2 103680 87
2001-12-17 09:48 51°9.342 2°36.241 4.3 332 5.2 103690 87
2001-12-17 09:49 51°9.332 2°36.238 4 358 5.3 103690 87
2001-12-17 09:50 51°9.322 2°36.233 5 343 5.3 103680 87
2001-12-17 09:51 51°9.314 2°36.225 4.3 343 5.4 103680 87
2001-12-17 09:52 51°9.306 2°36.215 4.6 337 5.4 103680 87
2001-12-17 09:53 51°9.298 2°36.202 4.5 302 5.5 103680 87
2001-12-17 09:54 51°9.291 2°36.188 4.6 309 5.8 103680 87
2001-12-17 09:55 51°9.285 2°36.176 4.3 272 5.8 103680 86
2001-12-17 09:56 51°9.282 2°36.165 3 266 5.9 103690 86
2001-12-17 09:57 51°9.282 2°36.154 2.7 279 5.9 103680 85
2001-12-17 09:58 51°9.285 2°36.148 1.1 200 5.9 103680 85
2001-12-17 09:59 51°9.29 2°36.147 1.9 193 6 103680 86
2001-12-17 10:00 51°9.298 2°36.148 3.9 194 6.2 103680 87
2001-12-17 10:01 51°9.305 2°36.15 5 201 6.4 103680 87
2001-12-17 10:02 51°9.311 2°36.154 5.3 203 6.6 103680 87
2001-12-17 10:03 51°9.317 2°36.159 6.3 199 6.8 103680 87
2001-12-17 10:04 51°9.321 2°36.165 5.5 199 6.8 103680 87
2001-12-17 10:05 51°9.327 2°36.169 7 190 6.9 103680 86
2001-12-17 10:06 51°9.333 2°36.175 6.5 197 6.9 103680 86
2001-12-17 10:07 51°9.333 2°36.185 7.9 202 7 103680 85
2001-12-17 10:08 51°9.324 2°36.198 6.2 211 7 103680 84
2001-12-17 10:09 51°9.318 2°36.212 7.3 205 7 103670 84
2001-12-17 10:10 51°9.315 2°36.22 6.7 202 7 103680 83
2001-12-17 10:11 51°9.314 2°36.222 6.3 193 7.1 103670 83
2001-12-17 10:12 51°9.312 2°36.219 6.3 189 7.1 103660 83
2001-12-17 10:13 51°9.311 2°36.213 7.2 184 7.1 103660 83
2001-12-17 10:14 51°9.308 2°36.205 7.5 185 7 103660 82
2001-12-17 10:15 51°9.305 2°36.195 6.2 178 7 103660 82
2001-12-17 10:16 51°9.302 2°36.183 7.1 178 7.1 103650 82
2001-12-17 10:17 51°9.296 2°36.171 6.7 181 7.1 103650 82
2001-12-17 10:18 51°9.291 2°36.159 6.8 186 7.1 103650 81
2001-12-17 10:19 51°9.285 2°36.147 7.4 186 7.1 103650 81
2001-12-17 10:20 51°9.28 2°36.135 7.4 191 7.1 103640 81
2001-12-17 10:21 51°9.274 2°36.127 8 195 7.1 103640 80
2001-12-17 10:22 51°9.269 2°36.123 7.5 201 7.1 103650 79
2001-12-17 10:23 51°9.265 2°36.122 7.1 197 7.2 103650 79
2001-12-17 10:24 51°9.261 2°36.124 7.4 205 7.2 103640 79
2001-12-17 10:25 51°9.264 2°36.136 7.7 183 7.2 103640 80
2001-12-17 10:26 51°9.356 2°36.147 11.1 146 7.2 103630 80
2001-12-17 10:27 51°9.545 2°36.11 13.6 148 7.2 103630 79
2001-12-17 10:28 51°9.754 2°36.064 15.1 145 7.2 103630 79
2001-12-17 10:29 51°9.974 2°36.007 14.9 144 7.3 103630 79
2001-12-17 10:30 51°10.189 2°35.951 12.8 141 7.3 103630 79
2001-12-17 10:31 51°10.396 2°35.967 15 154 7.4 103630 79
2001-12-17 10:32 51°10.567 2°36.142 16.3 167 7.4 103630 80
2001-12-17 10:33 51°10.717 2°36.362 14.8 165 7.5 103620 81
2001-12-17 10:34 51°10.867 2°36.583 14.4 167 7.4 103620 81
2001-12-17 10:35 51°10.997 2°36.836 13.4 171 7.4 103620 82
2001-12-17 10:36 51°11.121 2°37.097 13.1 168 7.3 103620 83
2001-12-17 10:37 51°11.24 2°37.366 11.6 167 7.3 103620 83
2001-12-17 10:38 51°11.361 2°37.634 12.4 166 7.3 103610 84
2001-12-17 10:39 51°11.481 2°37.902 13.4 167 7.3 103620 84
2001-12-17 10:40 51°11.612 2°38.157 13.3 166 7.2 103620 84
2001-12-17 10:41 51°11.77 2°38.368 14.2 159 7.2 103610 84
2001-12-17 10:42 51°11.96 2°38.495 12.4 154 7.2 103610 85
2001-12-17 10:43 51°12.154 2°38.609 13.7 149 7.2 103600 85
2001-12-17 10:44 51°12.351 2°38.714 13.5 149 7.2 103600 85
2001-12-17 10:45 51°12.547 2°38.818 14.9 153 7.2 103600 85
2001-12-17 10:46 51°12.75 2°38.885 13.5 151 7.2 103600 85
2001-12-17 10:47 51°12.938 2°39.011 14.4 162 7.3 103600 85
2001-12-17 10:48 51°13.13 2°39.131 15.2 154 7.3 103600 85
2001-12-17 10:49 51°13.332 2°39.218 15.3 149 7.4 103600 85
2001-12-17 10:50 51°13.533 2°39.315 14.5 141 7.4 103590 84
2001-12-17 10:51 51°13.734 2°39.41 14.8 149 7.5 103590 84
2001-12-17 10:52 51°13.937 2°39.491 15.9 147 7.5 103580 83
2001-12-17 10:53 51°14.142 2°39.573 15.6 148 7.5 103590 83
2001-12-17 10:54 51°14.345 2°39.656 16.3 149 7.5 103580 84
2001-12-17 10:55 51°14.555 2°39.726 15.3 144 7.5 103590 84
2001-12-17 10:56 51°14.756 2°39.797 16.3 143 7.4 103580 84
2001-12-17 10:57 51°14.959 2°39.862 16.3 141 7.3 103580 85
2001-12-17 10:58 51°15.16 2°39.928 14.6 145 7.2 103580 85
2001-12-17 10:59 51°15.361 2°39.993 14.1 144 7.2 103580 86
2001-12-17 11:00 51°15.504 2°40.046 9.3 150 7.2 103580 86
2001-12-17 11:01 51°15.571 2°40.067 8.5 142 7.2 103580 86
2001-12-17 11:02 51°15.609 2°40.057 7.2 135 7.1 103580 87
2001-12-17 11:03 51°15.629 2°40.033 6.3 131 7.2 103570 87
2001-12-17 11:04 51°15.645 2°39.995 5.5 125 7.2 103570 87
2001-12-17 11:05 51°15.643 2°39.956 5.6 114 7.2 103570 87
2001-12-17 11:06 51°15.63 2°39.925 5 112 7.2 103570 86
2001-12-17 11:07 51°15.61 2°39.897 5.3 97 7.3 103560 86
2001-12-17 11:08 51°15.587 2°39.87 7.6 77 7.3 103560 86
2001-12-17 11:09 51°15.559 2°39.846 8.6 56 7.4 103550 86
2001-12-17 11:10 51°15.529 2°39.825 9.2 130 7.4 103550 86
2001-12-17 11:11 51°15.498 2°39.804 8.6 36 7.3 103550 87
2001-12-17 11:12 51°15.467 2°39.783 11.8 42 7.3 103550 87
2001-12-17 11:13 51°15.435 2°39.76 10.1 316 7.3 103540 88
2001-12-17 11:14 51°15.405 2°39.739 10 134 7.2 103540 88
2001-12-17 11:15 51°15.375 2°39.718 10 46 7.1 103540 89
2001-12-17 11:16 51°15.345 2°39.698 9 41 7.1 103540 89
2001-12-17 11:17 51°15.317 2°39.659 13.2 68 7.1 103550 89
2001-12-17 11:18 51°15.399 2°39.516 17.1 135 7.1 103540 89
2001-12-17 11:19 51°15.593 2°39.493 19.7 143 7.1 103550 89
2001-12-17 11:20 51°15.792 2°39.547 17.7 154 7.1 103540 89
2001-12-17 11:21 51°15.986 2°39.644 17.8 152 7.1 103530 89
2001-12-17 11:22 51°16.168 2°39.79 16.3 157 7.1 103530 90
2001-12-17 11:23 51°16.346 2°39.95 18.7 154 7.1 103520 90
2001-12-17 11:24 51°16.52 2°40.114 17.4 153 7.1 103540 90
2001-12-17 11:25 51°16.695 2°40.28 17.2 146 7.1 103550 90
2001-12-17 11:26 51°16.872 2°40.442 16.2 141 7.1 103540 90
2001-12-17 11:27 51°17.049 2°40.603 16.5 137 7.1 103540 90
2001-12-17 11:28 51°17.227 2°40.774 14.6 138 7.1 103550 90
2001-12-17 11:29 51°17.408 2°40.944 14 137 7 103550 90
2001-12-17 11:30 51°17.589 2°41.112 14.8 133 7 103540 91
2001-12-17 11:31 51°17.769 2°41.282 13.6 135 6.9 103550 91
2001-12-17 11:32 51°17.951 2°41.455 14.4 136 6.9 103550 91
2001-12-17 11:33 51°18.135 2°41.627 13.3 134 6.9 103550 91
2001-12-17 11:34 51°18.317 2°41.794 13.8 135 6.9 103540 91
2001-12-17 11:35 51°18.498 2°41.968 13.7 136 7 103540 91
2001-12-17 11:36 51°18.679 2°42.141 13.9 134 7 103540 91
2001-12-17 11:37 51°18.862 2°42.31 12.7 133 7 103540 91
2001-12-17 11:38 51°19.046 2°42.482 13.7 133 7 103530 91
2001-12-17 11:39 51°19.229 2°42.652 13.6 139 7 103540 91
2001-12-17 11:40 51°19.416 2°42.811 13.1 139 7.1 103530 90
2001-12-17 11:41 51°19.606 2°42.969 12.6 133 7.1 103540 90
2001-12-17 11:42 51°19.795 2°43.135 13.5 137 7.1 103530 90
2001-12-17 11:43 51°19.986 2°43.298 11.6 142 7.2 103530 90
2001-12-17 11:44 51°20.177 2°43.465 12.8 143 7.2 103530 90
2001-12-17 11:45 51°20.367 2°43.632 12.2 140 7.3 103530 89
2001-12-17 11:46 51°20.561 2°43.797 12.7 140 7.3 103530 89
2001-12-17 11:47 51°20.753 2°43.965 11.2 144 7.3 103530 89
2001-12-17 11:48 51°20.943 2°44.138 10.6 141 7.4 103520 89
2001-12-17 11:49 51°21.136 2°44.304 12.7 144 7.4 103540 89
2001-12-17 11:50 51°21.326 2°44.482 12.7 145 7.4 103520 89
2001-12-17 11:51 51°21.519 2°44.649 12.8 141 7.5 103510 88
2001-12-17 11:52 51°21.71 2°44.818 12.3 145 7.5 103530 87
2001-12-17 11:53 51°21.9 2°44.992 14.8 148 7.6 103520 86
2001-12-17 11:54 51°22.091 2°45.162 13.8 146 7.6 103520 85
2001-12-17 11:55 51°22.281 2°45.335 14 141 7.7 103520 85
2001-12-17 11:56 51°22.472 2°45.502 14.5 144 7.8 103520 83
2001-12-17 11:57 51°22.661 2°45.675 13.1 141 7.9 103520 81
2001-12-17 11:58 51°22.851 2°45.847 15.2 139 8 103520 80
2001-12-17 11:59 51°23.041 2°46.019 14.4 139 8 103510 76
2001-12-17 12:00 51°23.233 2°46.188 15.8 143 8.2 103510 75
2001-12-17 12:01 51°23.424 2°46.355 16.4 146 8.3 103510 73
2001-12-17 12:02 51°23.613 2°46.527 16.3 142 8.3 103520 70
2001-12-17 12:03 51°23.801 2°46.689 15.4 140 8.4 103490 69
2001-12-17 12:04 51°23.993 2°46.86 15.3 145 8.5 103500 70
2001-12-17 12:05 51°24.18 2°47.029 14.9 143 8.6 103510 71
2001-12-17 12:06 51°24.37 2°47.192 17 142 8.5 103510 70
2001-12-17 12:07 51°24.562 2°47.365 17.3 143 8.6 103510 71
2001-12-17 12:08 51°24.755 2°47.534 14.7 146 8.5 103510 68
2001-12-17 12:09 51°24.951 2°47.694 15.5 141 8.6 103500 69
2001-12-17 12:10 51°25.149 2°47.843 16.1 142 8.6 103520 70
2001-12-17 12:11 51°25.344 2°48.003 17.5 140 8.7 103510 71
2001-12-17 12:12 51°25.547 2°48.134 15.7 132 8.6 103520 73
2001-12-17 12:13 51°25.75 2°48.267 14.7 130 8.5 103510 76
2001-12-17 12:14 51°25.943 2°48.395 14.9 122 8.4 103500 77
2001-12-17 12:15 51°26.023 2°48.467 12.1 140 8.3 103510 79
2001-12-17 12:16 51°26.023 2°48.495 11.7 183 8.2 103520 81
2001-12-17 12:17 51°26.008 2°48.494 6.9 225 8.1 103530 81
2001-12-17 12:18 51°25.993 2°48.501 5.5 226 8 103520 82
2001-12-17 12:19 51°25.974 2°48.513 9.4 210 7.9 103520 83
2001-12-17 12:20 51°25.955 2°48.531 8.3 207 7.9 103530 83
2001-12-17 12:21 51°25.941 2°48.531 6.6 210 7.8 103530 83
2001-12-17 12:22 51°25.92 2°48.563 13.4 193 7.8 103530 83
2001-12-17 12:23 51°25.932 2°48.646 12 120 7.7 103500 82
2001-12-17 12:24 51°25.975 2°48.635 9.9 40 7.8 103480 82
2001-12-17 12:25 51°25.983 2°48.602 10.3 43 7.7 103500 81
2001-12-17 12:26 51°25.983 2°48.587 9.5 58 7.7 103500 80
2001-12-17 12:27 51°25.98 2°48.579 10.3 48 7.7 103500 80
2001-12-17 12:28 51°25.971 2°48.576 9.8 48 7.7 103490 79
2001-12-17 12:29 51°25.96 2°48.575 11.5 38 7.7 103490 79
2001-12-17 12:30 51°25.946 2°48.583 11.7 27 7.7 103500 78
2001-12-17 12:31 51°25.933 2°48.593 10.3 23 7.7 103490 78
2001-12-17 12:32 51°25.921 2°48.6 9.6 23 7.8 103500 79
2001-12-17 12:33 51°25.908 2°48.606 10.3 23 7.7 103490 78
2001-12-17 12:34 51°25.896 2°48.611 9.7 20 7.7 103500 79
2001-12-17 12:35 51°25.886 2°48.615 9.3 35 7.8 103500 80
2001-12-17 12:36 51°25.877 2°48.619 10.1 28 7.7 103490 79
2001-12-17 12:37 51°25.867 2°48.626 8.1 36 7.7 103510 79
2001-12-17 12:38 51°25.857 2°48.634 8.4 31 7.8 103510 81
2001-12-17 12:39 51°25.849 2°48.641 10 34 7.7 103500 81
2001-12-17 12:40 51°25.841 2°48.647 9.3 30 7.6 103500 79
2001-12-17 12:41 51°25.833 2°48.654 8.5 36 7.6 103500 79
2001-12-17 12:42 51°25.826 2°48.664 9.9 35 7.7 103510 81
2001-12-17 12:43 51°25.818 2°48.673 8.6 30 7.6 103510 80
2001-12-17 12:44 51°25.768 2°48.565 4.2 275 7.7 103520 80
2001-12-17 12:45 51°25.568 2°48.573 5.2 211 7.7 103520 81
2001-12-17 12:46 51°25.347 2°48.655 6 217 7.7 103520 80
2001-12-17 12:47 51°25.128 2°48.733 7 206 7.7 103520 80
2001-12-17 12:48 51°24.908 2°48.817 7 207 7.7 103520 80
2001-12-17 12:49 51°24.686 2°48.894 6.2 218 7.6 103520 80
2001-12-17 12:50 51°24.466 2°48.981 6.8 209 7.6 103520 79
2001-12-17 12:51 51°24.243 2°49.061 5.5 209 7.6 103520 79
2001-12-17 12:52 51°24.024 2°49.138 5.3 213 7.6 103510 79
2001-12-17 12:53 51°23.803 2°49.219 7 215 7.6 103520 79
2001-12-17 12:54 51°23.585 2°49.3 8.5 198 7.6 103510 79
2001-12-17 12:55 51°23.367 2°49.364 5.8 218 7.6 103510 79
2001-12-17 12:56 51°23.146 2°49.432 5 205 7.6 103510 79
2001-12-17 12:57 51°22.93 2°49.498 4.8 196 7.6 103510 79
2001-12-17 12:58 51°22.71 2°49.589 9.8 205 7.6 103510 79
2001-12-17 12:59 51°22.49 2°49.674 8.5 205 7.6 103510 79
2001-12-17 13:00 51°22.27 2°49.766 9.6 203 7.6 103500 79
2001-12-17 13:01 51°22.058 2°49.875 8.9 203 7.6 103510 79
2001-12-17 13:02 51°21.844 2°49.98 9.3 208 7.6 103510 78
2001-12-17 13:03 51°21.633 2°50.092 8.8 209 7.6 103510 79
2001-12-17 13:04 51°21.418 2°50.195 10 203 7.5 103510 78
2001-12-17 13:05 51°21.204 2°50.311 7.4 208 7.5 103500 77
2001-12-17 13:06 51°20.991 2°50.42 8.4 204 7.5 103500 77
2001-12-17 13:07 51°20.772 2°50.526 9.8 203 7.6 103510 79
2001-12-17 13:08 51°20.556 2°50.626 8.9 207 7.5 103500 77
2001-12-17 13:09 51°20.344 2°50.733 9.9 207 7.5 103510 76
2001-12-17 13:10 51°20.133 2°50.832 7 198 7.5 103500 75
2001-12-17 13:11 51°19.915 2°50.937 6.9 206 7.5 103500 76
2001-12-17 13:12 51°19.696 2°51.042 7.8 202 7.5 103500 76
2001-12-17 13:13 51°19.478 2°51.145 6.9 204 7.5 103500 75
2001-12-17 13:14 51°19.263 2°51.248 6.4 206 7.5 103500 76
2001-12-17 13:15 51°19.05 2°51.358 6.7 205 7.5 103490 76
2001-12-17 13:16 51°18.844 2°51.462 6.2 200 7.5 103490 76
2001-12-17 13:17 51°18.635 2°51.562 6.3 207 7.4 103500 76
2001-12-17 13:18 51°18.424 2°51.671 6.8 205 7.4 103500 76
2001-12-17 13:19 51°18.215 2°51.766 4.8 195 7.4 103490 77
2001-12-17 13:20 51°18.003 2°51.868 5.1 194 7.4 103490 77
2001-12-17 13:21 51°17.794 2°51.967 5.2 193 7.4 103490 77
2001-12-17 13:22 51°17.585 2°52.07 5.7 201 7.4 103490 77
2001-12-17 13:23 51°17.377 2°52.189 5.3 189 7.4 103490 78
2001-12-17 13:24 51°17.173 2°52.335 6.4 192 7.4 103490 78
2001-12-17 13:25 51°16.974 2°52.502 6.8 201 7.3 103490 79
2001-12-17 13:26 51°16.776 2°52.678 6.6 190 7.3 103480 79
2001-12-17 13:27 51°16.578 2°52.861 7.2 197 7.3 103480 79
2001-12-17 13:28 51°16.385 2°53.045 6 198 7.3 103480 79
2001-12-17 13:29 51°16.192 2°53.237 6.4 206 7.2 103480 79
2001-12-17 13:30 51°16 2°53.422 6.6 212 7.2 103480 79
2001-12-17 13:31 51°15.806 2°53.605 6.7 196 7.2 103480 79
2001-12-17 13:32 51°15.612 2°53.784 6 196 7.2 103480 80
2001-12-17 13:33 51°15.416 2°53.963 6.3 198 7.1 103470 80
2001-12-17 13:34 51°15.222 2°54.138 6.9 198 7.1 103480 80
2001-12-17 13:35 51°15.027 2°54.317 6.2 202 7.1 103470 80
2001-12-17 13:36 51°14.837 2°54.508 7.2 201 7.1 103470 80
2001-12-17 13:37 51°14.653 2°54.71 7.3 193 7.1 103480 80
2001-12-17 13:38 51°14.475 2°54.918 8.9 196 7 103470 81
2001-12-17 13:39 51°14.316 2°55.167 7.8 185 7 103460 81
2001-12-17 13:40 51°14.163 2°55.377 5.2 191 7 103470 81
2001-12-17 13:41 51°14.03 2°55.482 2.7 199 6.9 103480 81
2001-12-17 13:42 51°13.915 2°55.565 3.2 207 6.9 103480 80
2001-12-17 13:43 51°13.824 2°55.631 1.2 240 6.9 103480 80
2001-12-17 13:44 51°13.766 2°55.691 2.1 239 6.9 103470 80
2001-12-17 13:45 51°13.73 2°55.754 3.2 202 6.9 103470 80
2001-12-17 13:46 51°13.706 2°55.816 4.3 163 6.9 103470 80
2001-12-17 13:47 51°13.694 2°55.876 3.4 188 6.9 103470 80
2001-12-17 13:48 51°13.685 2°55.909 3 323 6.9 103480 79
2001-12-17 13:49 51°13.686 2°55.901 2.5 234 6.9 103480 78
2001-12-17 13:50 51°13.684 2°55.904 2.2 246 6.9 103470 78